sensor_id;sensor_type;location;lat;lon;timestamp;P1;durP1;ratioP1;P2;durP2;ratioP2
26478;SDS011;14163;-26.142;27.992;2023-04-25T00:00:42;13.00;;;11.60;;
26478;SDS011;14163;-26.142;27.992;2023-04-25T00:03:13;14.40;;;10.97;;
26478;SDS011;14163;-26.142;27.992;2023-04-25T00:05:44;12.20;;;10.90;;
26478;SDS011;14163;-26.142;27.992;2023-04-25T00:08:13;18.83;;;10.50;;
26478;SDS011;14163;-26.142;27.992;2023-04-25T00:10:43;17.40;;;11.50;;
26478;SDS011;14163;-26.142;27.992;2023-04-25T00:13:12;14.23;;;11.97;;
26478;SDS011;14163;-26.142;27.992;2023-04-25T00:15:43;16.13;;;12.43;;
26478;SDS011;14163;-26.142;27.992;2023-04-25T00:18:15;13.40;;;12.00;;
26478;SDS011;14163;-26.142;27.992;2023-04-25T00:20:45;12.97;;;11.00;;
26478;SDS011;14163;-26.142;27.992;2023-04-25T00:23:15;15.17;;;12.07;;
26478;SDS011;14163;-26.142;27.992;2023-04-25T00:25:45;13.97;;;11.03;;
26478;SDS011;14163;-26.142;27.992;2023-04-25T00:28:14;10.60;;;9.60;;
26478;SDS011;14163;-26.142;27.992;2023-04-25T00:30:45;10.57;;;9.67;;
26478;SDS011;14163;-26.142;27.992;2023-04-25T00:33:16;12.90;;;10.10;;
26478;SDS011;14163;-26.142;27.992;2023-04-25T00:35:45;12.27;;;10.60;;
26478;SDS011;14163;-26.142;27.992;2023-04-25T00:38:14;14.97;;;10.87;;
26478;SDS011;14163;-26.142;27.992;2023-04-25T00:40:43;16.53;;;10.50;;
26478;SDS011;14163;-26.142;27.992;2023-04-25T00:43:13;14.07;;;10.90;;
26478;SDS011;14163;-26.142;27.992;2023-04-25T00:45:42;10.60;;;9.57;;
26478;SDS011;14163;-26.142;27.992;2023-04-25T00:48:12;11.73;;;10.27;;
26478;SDS011;14163;-26.142;27.992;2023-04-25T00:50:48;16.87;;;9.90;;
26478;SDS011;14163;-26.142;27.992;2023-04-25T00:53:20;11.60;;;10.40;;
26478;SDS011;14163;-26.142;27.992;2023-04-25T00:55:50;14.97;;;10.67;;
26478;SDS011;14163;-26.142;27.992;2023-04-25T00:58:20;10.90;;;9.20;;
26478;SDS011;14163;-26.142;27.992;2023-04-25T01:00:51;10.47;;;9.40;;
26478;SDS011;14163;-26.142;27.992;2023-04-25T01:03:22;10.13;;;9.23;;
26478;SDS011;14163;-26.142;27.992;2023-04-25T01:05:54;14.00;;;11.30;;
26478;SDS011;14163;-26.142;27.992;2023-04-25T01:08:23;10.83;;;9.77;;
26478;SDS011;14163;-26.142;27.992;2023-04-25T01:10:53;11.20;;;9.30;;
26478;SDS011;14163;-26.142;27.992;2023-04-25T01:13:22;12.87;;;9.80;;
26478;SDS011;14163;-26.142;27.992;2023-04-25T01:15:51;10.90;;;9.80;;
26478;SDS011;14163;-26.142;27.992;2023-04-25T01:18:22;12.37;;;9.17;;
26478;SDS011;14163;-26.142;27.992;2023-04-25T01:20:51;11.70;;;9.90;;
26478;SDS011;14163;-26.142;27.992;2023-04-25T01:23:23;11.57;;;10.37;;
26478;SDS011;14163;-26.142;27.992;2023-04-25T01:25:53;10.57;;;9.47;;
26478;SDS011;14163;-26.142;27.992;2023-04-25T01:28:22;12.50;;;11.00;;
26478;SDS011;14163;-26.142;27.992;2023-04-25T01:30:52;9.80;;;8.90;;
26478;SDS011;14163;-26.142;27.992;2023-04-25T01:33:22;11.87;;;9.73;;
26478;SDS011;14163;-26.142;27.992;2023-04-25T01:35:51;17.33;;;10.10;;
26478;SDS011;14163;-26.142;27.992;2023-04-25T01:38:20;11.77;;;10.23;;
26478;SDS011;14163;-26.142;27.992;2023-04-25T01:40:51;13.43;;;11.13;;
26478;SDS011;14163;-26.142;27.992;2023-04-25T01:43:21;13.37;;;11.73;;
26478;SDS011;14163;-26.142;27.992;2023-04-25T01:45:50;15.93;;;12.20;;
26478;SDS011;14163;-26.142;27.992;2023-04-25T01:48:19;14.50;;;12.97;;
26478;SDS011;14163;-26.142;27.992;2023-04-25T01:50:49;20.17;;;13.17;;
26478;SDS011;14163;-26.142;27.992;2023-04-25T01:53:18;15.27;;;13.00;;
26478;SDS011;14163;-26.142;27.992;2023-04-25T01:55:50;16.27;;;14.57;;
26478;SDS011;14163;-26.142;27.992;2023-04-25T01:58:20;16.50;;;13.47;;
26478;SDS011;14163;-26.142;27.992;2023-04-25T02:00:49;16.63;;;12.93;;
26478;SDS011;14163;-26.142;27.992;2023-04-25T02:03:18;16.03;;;13.40;;
26478;SDS011;14163;-26.142;27.992;2023-04-25T02:05:47;16.93;;;12.80;;
26478;SDS011;14163;-26.142;27.992;2023-04-25T02:08:17;12.67;;;11.50;;
26478;SDS011;14163;-26.142;27.992;2023-04-25T02:10:46;15.83;;;11.93;;
26478;SDS011;14163;-26.142;27.992;2023-04-25T02:13:17;14.10;;;11.20;;
26478;SDS011;14163;-26.142;27.992;2023-04-25T02:15:46;20.40;;;14.77;;
26478;SDS011;14163;-26.142;27.992;2023-04-25T02:18:15;16.20;;;14.17;;
26478;SDS011;14163;-26.142;27.992;2023-04-25T02:20:45;15.53;;;13.90;;
26478;SDS011;14163;-26.142;27.992;2023-04-25T02:23:14;17.10;;;13.93;;
26478;SDS011;14163;-26.142;27.992;2023-04-25T02:25:45;16.40;;;13.10;;
26478;SDS011;14163;-26.142;27.992;2023-04-25T02:28:16;18.53;;;14.37;;
26478;SDS011;14163;-26.142;27.992;2023-04-25T02:30:46;17.93;;;13.90;;
26478;SDS011;14163;-26.142;27.992;2023-04-25T02:33:15;16.97;;;15.27;;
26478;SDS011;14163;-26.142;27.992;2023-04-25T02:35:44;17.33;;;14.40;;
26478;SDS011;14163;-26.142;27.992;2023-04-25T02:38:13;18.23;;;14.87;;
26478;SDS011;14163;-26.142;27.992;2023-04-25T02:40:42;20.20;;;13.80;;
26478;SDS011;14163;-26.142;27.992;2023-04-25T02:43:12;17.53;;;13.83;;
26478;SDS011;14163;-26.142;27.992;2023-04-25T02:45:43;15.83;;;14.20;;
26478;SDS011;14163;-26.142;27.992;2023-04-25T02:48:12;16.10;;;13.93;;
26478;SDS011;14163;-26.142;27.992;2023-04-25T02:50:41;15.60;;;14.00;;
26478;SDS011;14163;-26.142;27.992;2023-04-25T02:53:11;17.80;;;14.27;;
26478;SDS011;14163;-26.142;27.992;2023-04-25T02:55:41;18.60;;;14.67;;
26478;SDS011;14163;-26.142;27.992;2023-04-25T02:58:10;17.93;;;15.37;;
26478;SDS011;14163;-26.142;27.992;2023-04-25T03:00:41;20.10;;;14.73;;
26478;SDS011;14163;-26.142;27.992;2023-04-25T03:03:12;17.23;;;15.20;;
26478;SDS011;14163;-26.142;27.992;2023-04-25T03:05:44;17.93;;;14.40;;
26478;SDS011;14163;-26.142;27.992;2023-04-25T03:08:16;19.03;;;15.80;;
26478;SDS011;14163;-26.142;27.992;2023-04-25T03:10:45;13.67;;;12.17;;
26478;SDS011;14163;-26.142;27.992;2023-04-25T03:13:15;19.43;;;13.97;;
26478;SDS011;14163;-26.142;27.992;2023-04-25T03:15:46;14.90;;;11.70;;
26478;SDS011;14163;-26.142;27.992;2023-04-25T03:18:15;13.83;;;10.70;;
26478;SDS011;14163;-26.142;27.992;2023-04-25T03:20:45;11.57;;;10.47;;
26478;SDS011;14163;-26.142;27.992;2023-04-25T03:23:14;12.73;;;10.00;;
26478;SDS011;14163;-26.142;27.992;2023-04-25T03:25:43;12.33;;;9.30;;
26478;SDS011;14163;-26.142;27.992;2023-04-25T03:28:12;10.13;;;7.97;;
26478;SDS011;14163;-26.142;27.992;2023-04-25T03:30:41;9.43;;;7.80;;
26478;SDS011;14163;-26.142;27.992;2023-04-25T03:33:12;10.80;;;7.97;;
26478;SDS011;14163;-26.142;27.992;2023-04-25T03:35:41;9.97;;;7.70;;
26478;SDS011;14163;-26.142;27.992;2023-04-25T03:38:13;10.27;;;7.90;;
26478;SDS011;14163;-26.142;27.992;2023-04-25T03:40:42;13.57;;;7.70;;
26478;SDS011;14163;-26.142;27.992;2023-04-25T03:43:11;9.27;;;8.07;;
26478;SDS011;14163;-26.142;27.992;2023-04-25T03:45:40;13.90;;;7.93;;
26478;SDS011;14163;-26.142;27.992;2023-04-25T03:48:11;11.23;;;7.83;;
26478;SDS011;14163;-26.142;27.992;2023-04-25T03:50:42;12.70;;;8.50;;
26478;SDS011;14163;-26.142;27.992;2023-04-25T03:53:11;11.83;;;8.30;;
26478;SDS011;14163;-26.142;27.992;2023-04-25T03:55:40;12.23;;;8.90;;
26478;SDS011;14163;-26.142;27.992;2023-04-25T03:58:10;17.53;;;9.43;;
26478;SDS011;14163;-26.142;27.992;2023-04-25T04:00:40;18.60;;;10.90;;
26478;SDS011;14163;-26.142;27.992;2023-04-25T04:03:09;17.30;;;10.70;;
26478;SDS011;14163;-26.142;27.992;2023-04-25T04:05:40;17.67;;;11.97;;
26478;SDS011;14163;-26.142;27.992;2023-04-25T04:08:09;17.93;;;11.27;;
26478;SDS011;14163;-26.142;27.992;2023-04-25T06:19:38;13.53;;;7.00;;
26478;SDS011;14163;-26.142;27.992;2023-04-25T06:22:08;8.27;;;6.27;;
26478;SDS011;14163;-26.142;27.992;2023-04-25T06:24:39;7.13;;;5.90;;
26478;SDS011;14163;-26.142;27.992;2023-04-25T06:27:08;8.90;;;6.90;;
26478;SDS011;14163;-26.142;27.992;2023-04-25T06:29:37;11.70;;;7.63;;
26478;SDS011;14163;-26.142;27.992;2023-04-25T06:32:06;19.73;;;7.60;;
26478;SDS011;14163;-26.142;27.992;2023-04-25T06:34:35;9.67;;;8.30;;
26478;SDS011;14163;-26.142;27.992;2023-04-25T06:37:07;10.50;;;7.53;;
26478;SDS011;14163;-26.142;27.992;2023-04-25T06:39:36;11.70;;;7.30;;
26478;SDS011;14163;-26.142;27.992;2023-04-25T06:42:06;6.77;;;5.53;;
26478;SDS011;14163;-26.142;27.992;2023-04-25T06:44:35;8.07;;;5.80;;
26478;SDS011;14163;-26.142;27.992;2023-04-25T06:47:05;8.10;;;5.30;;
26478;SDS011;14163;-26.142;27.992;2023-04-25T06:49:34;5.37;;;4.67;;
26478;SDS011;14163;-26.142;27.992;2023-04-25T06:52:05;6.93;;;5.27;;
26478;SDS011;14163;-26.142;27.992;2023-04-25T06:54:34;5.70;;;4.30;;
26478;SDS011;14163;-26.142;27.992;2023-04-25T06:57:04;5.23;;;4.83;;
26478;SDS011;14163;-26.142;27.992;2023-04-25T06:59:33;6.93;;;4.53;;
26478;SDS011;14163;-26.142;27.992;2023-04-25T07:02:02;8.40;;;4.90;;
26478;SDS011;14163;-26.142;27.992;2023-04-25T07:04:31;4.53;;;4.13;;
26478;SDS011;14163;-26.142;27.992;2023-04-25T07:07:00;9.33;;;4.57;;
26478;SDS011;14163;-26.142;27.992;2023-04-25T07:09:31;6.40;;;4.63;;
26478;SDS011;14163;-26.142;27.992;2023-04-25T07:12:00;7.10;;;4.60;;
26478;SDS011;14163;-26.142;27.992;2023-04-25T07:14:30;9.10;;;4.13;;
26478;SDS011;14163;-26.142;27.992;2023-04-25T07:16:59;9.07;;;4.33;;
26478;SDS011;14163;-26.142;27.992;2023-04-25T07:19:28;12.50;;;5.63;;
26478;SDS011;14163;-26.142;27.992;2023-04-25T07:21:57;7.43;;;5.07;;
26478;SDS011;14163;-26.142;27.992;2023-04-25T07:24:26;9.80;;;5.40;;
26478;SDS011;14163;-26.142;27.992;2023-04-25T07:26:57;5.77;;;4.70;;
26478;SDS011;14163;-26.142;27.992;2023-04-25T07:29:27;7.13;;;5.70;;
26478;SDS011;14163;-26.142;27.992;2023-04-25T07:31:57;5.40;;;4.87;;
26478;SDS011;14163;-26.142;27.992;2023-04-25T07:34:26;6.90;;;5.33;;
26478;SDS011;14163;-26.142;27.992;2023-04-25T07:36:56;6.30;;;5.27;;
26478;SDS011;14163;-26.142;27.992;2023-04-25T07:39:26;6.57;;;5.10;;
26478;SDS011;14163;-26.142;27.992;2023-04-25T07:41:57;6.67;;;5.07;;
26478;SDS011;14163;-26.142;27.992;2023-04-25T07:44:27;6.17;;;5.33;;
26478;SDS011;14163;-26.142;27.992;2023-04-25T07:46:57;6.00;;;5.40;;
26478;SDS011;14163;-26.142;27.992;2023-04-25T07:49:26;7.10;;;5.60;;
26478;SDS011;14163;-26.142;27.992;2023-04-25T07:51:55;4.07;;;3.87;;
26478;SDS011;14163;-26.142;27.992;2023-04-25T07:54:24;5.93;;;5.07;;
26478;SDS011;14163;-26.142;27.992;2023-04-25T07:59:59;5.20;;;4.17;;
26478;SDS011;14163;-26.142;27.992;2023-04-25T08:02:28;6.50;;;4.23;;
26478;SDS011;14163;-26.142;27.992;2023-04-25T08:05:00;5.50;;;4.77;;
26478;SDS011;14163;-26.142;27.992;2023-04-25T08:07:29;5.33;;;4.83;;
26478;SDS011;14163;-26.142;27.992;2023-04-25T08:09:58;8.03;;;5.50;;
26478;SDS011;14163;-26.142;27.992;2023-04-25T08:12:30;5.73;;;5.20;;
26478;SDS011;14163;-26.142;27.992;2023-04-25T08:14:59;8.90;;;5.37;;
26478;SDS011;14163;-26.142;27.992;2023-04-25T08:17:28;5.10;;;4.60;;
26478;SDS011;14163;-26.142;27.992;2023-04-25T08:19:57;5.47;;;4.97;;
26478;SDS011;14163;-26.142;27.992;2023-04-25T08:22:28;8.13;;;4.90;;
26478;SDS011;14163;-26.142;27.992;2023-04-25T08:24:57;7.83;;;5.37;;
26478;SDS011;14163;-26.142;27.992;2023-04-25T08:27:27;7.93;;;5.23;;
26478;SDS011;14163;-26.142;27.992;2023-04-25T08:29:57;5.80;;;5.30;;
26478;SDS011;14163;-26.142;27.992;2023-04-25T08:32:27;7.13;;;6.43;;
26478;SDS011;14163;-26.142;27.992;2023-04-25T08:34:56;7.07;;;5.83;;
26478;SDS011;14163;-26.142;27.992;2023-04-25T08:37:26;7.27;;;6.50;;
26478;SDS011;14163;-26.142;27.992;2023-04-25T08:39:55;8.23;;;6.40;;
26478;SDS011;14163;-26.142;27.992;2023-04-25T08:42:24;11.77;;;6.47;;
26478;SDS011;14163;-26.142;27.992;2023-04-25T08:44:59;10.50;;;7.00;;
26478;SDS011;14163;-26.142;27.992;2023-04-25T08:47:31;16.90;;;7.80;;
26478;SDS011;14163;-26.142;27.992;2023-04-25T08:50:02;12.30;;;8.20;;
26478;SDS011;14163;-26.142;27.992;2023-04-25T08:52:35;10.00;;;7.67;;
26478;SDS011;14163;-26.142;27.992;2023-04-25T08:55:07;10.90;;;7.53;;
26478;SDS011;14163;-26.142;27.992;2023-04-25T08:57:41;9.60;;;7.50;;
26478;SDS011;14163;-26.142;27.992;2023-04-25T09:00:11;13.23;;;8.17;;
26478;SDS011;14163;-26.142;27.992;2023-04-25T09:02:42;9.20;;;8.30;;
26478;SDS011;14163;-26.142;27.992;2023-04-25T09:05:12;15.37;;;8.03;;
26478;SDS011;14163;-26.142;27.992;2023-04-25T09:07:42;10.87;;;8.20;;
26478;SDS011;14163;-26.142;27.992;2023-04-25T09:10:11;12.70;;;9.63;;
26478;SDS011;14163;-26.142;27.992;2023-04-25T09:12:42;14.43;;;10.27;;
26478;SDS011;14163;-26.142;27.992;2023-04-25T09:15:11;11.73;;;9.33;;
26478;SDS011;14163;-26.142;27.992;2023-04-25T09:17:41;15.80;;;10.30;;
26478;SDS011;14163;-26.142;27.992;2023-04-25T09:20:11;15.73;;;11.50;;
26478;SDS011;14163;-26.142;27.992;2023-04-25T09:22:41;13.13;;;9.70;;
26478;SDS011;14163;-26.142;27.992;2023-04-25T09:25:13;10.97;;;8.93;;
26478;SDS011;14163;-26.142;27.992;2023-04-25T09:27:53;10.33;;;9.23;;
26478;SDS011;14163;-26.142;27.992;2023-04-25T09:30:28;14.60;;;9.87;;
26478;SDS011;14163;-26.142;27.992;2023-04-25T09:33:03;11.60;;;10.40;;
26478;SDS011;14163;-26.142;27.992;2023-04-25T09:35:37;13.23;;;9.90;;
26478;SDS011;14163;-26.142;27.992;2023-04-25T09:38:07;11.30;;;10.20;;
26478;SDS011;14163;-26.142;27.992;2023-04-25T09:40:43;10.43;;;9.40;;
26478;SDS011;14163;-26.142;27.992;2023-04-25T09:43:20;9.50;;;8.50;;
26478;SDS011;14163;-26.142;27.992;2023-04-25T09:45:50;10.17;;;9.17;;
26478;SDS011;14163;-26.142;27.992;2023-04-25T09:48:23;12.90;;;8.80;;
26478;SDS011;14163;-26.142;27.992;2023-04-25T09:51:06;9.93;;;8.93;;
26478;SDS011;14163;-26.142;27.992;2023-04-25T09:53:36;10.50;;;9.47;;
26478;SDS011;14163;-26.142;27.992;2023-04-25T09:56:10;13.30;;;11.03;;
26478;SDS011;14163;-26.142;27.992;2023-04-25T09:58:42;19.83;;;14.93;;
26478;SDS011;14163;-26.142;27.992;2023-04-25T10:01:11;19.70;;;17.90;;
26478;SDS011;14163;-26.142;27.992;2023-04-25T10:03:40;29.93;;;18.97;;
26478;SDS011;14163;-26.142;27.992;2023-04-25T10:06:12;20.77;;;18.87;;
26478;SDS011;14163;-26.142;27.992;2023-04-25T10:08:44;17.60;;;15.87;;
26478;SDS011;14163;-26.142;27.992;2023-04-25T10:11:19;20.80;;;16.90;;
26478;SDS011;14163;-26.142;27.992;2023-04-25T10:13:52;22.33;;;19.53;;
26478;SDS011;14163;-26.142;27.992;2023-04-25T10:16:21;19.80;;;17.80;;
26478;SDS011;14163;-26.142;27.992;2023-04-25T10:18:51;19.70;;;16.27;;
26478;SDS011;14163;-26.142;27.992;2023-04-25T10:21:21;17.90;;;16.00;;
26478;SDS011;14163;-26.142;27.992;2023-04-25T10:23:52;14.23;;;13.13;;
26478;SDS011;14163;-26.142;27.992;2023-04-25T10:26:22;18.53;;;15.00;;
26478;SDS011;14163;-26.142;27.992;2023-04-25T10:28:57;16.47;;;14.77;;
26478;SDS011;14163;-26.142;27.992;2023-04-25T10:31:29;16.20;;;14.80;;
26478;SDS011;14163;-26.142;27.992;2023-04-25T10:33:59;16.23;;;14.60;;
26478;SDS011;14163;-26.142;27.992;2023-04-25T10:36:31;15.07;;;13.33;;
26478;SDS011;14163;-26.142;27.992;2023-04-25T10:39:03;15.10;;;13.50;;
26478;SDS011;14163;-26.142;27.992;2023-04-25T10:44:27;16.60;;;15.10;;
26478;SDS011;14163;-26.142;27.992;2023-04-25T10:46:57;17.43;;;15.83;;
26478;SDS011;14163;-26.142;27.992;2023-04-25T10:49:31;16.10;;;14.60;;
26478;SDS011;14163;-26.142;27.992;2023-04-25T10:52:24;17.07;;;15.30;;
26478;SDS011;14163;-26.142;27.992;2023-04-25T10:54:55;16.20;;;14.63;;
26478;SDS011;14163;-26.142;27.992;2023-04-25T10:57:29;18.20;;;15.03;;
26478;SDS011;14163;-26.142;27.992;2023-04-25T11:00:09;18.27;;;15.50;;
26478;SDS011;14163;-26.142;27.992;2023-04-25T11:02:41;17.60;;;15.90;;
26478;SDS011;14163;-26.142;27.992;2023-04-25T11:05:16;14.60;;;13.30;;
26478;SDS011;14163;-26.142;27.992;2023-04-25T11:07:52;15.17;;;13.57;;
26478;SDS011;14163;-26.142;27.992;2023-04-25T11:10:25;16.73;;;15.13;;
26478;SDS011;14163;-26.142;27.992;2023-04-25T11:12:54;16.07;;;14.47;;
26478;SDS011;14163;-26.142;27.992;2023-04-25T11:15:26;17.20;;;15.40;;
26478;SDS011;14163;-26.142;27.992;2023-04-25T11:17:55;14.50;;;13.00;;
26478;SDS011;14163;-26.142;27.992;2023-04-25T11:20:25;15.67;;;14.13;;
26478;SDS011;14163;-26.142;27.992;2023-04-25T11:22:56;16.23;;;14.77;;
26478;SDS011;14163;-26.142;27.992;2023-04-25T11:25:27;18.63;;;14.97;;
26478;SDS011;14163;-26.142;27.992;2023-04-25T11:27:57;17.10;;;15.40;;
26478;SDS011;14163;-26.142;27.992;2023-04-25T11:30:29;16.80;;;15.07;;
26478;SDS011;14163;-26.142;27.992;2023-04-25T11:32:58;15.50;;;13.90;;
26478;SDS011;14163;-26.142;27.992;2023-04-25T11:35:28;17.10;;;14.80;;
26478;SDS011;14163;-26.142;27.992;2023-04-25T11:37:59;15.67;;;12.87;;
26478;SDS011;14163;-26.142;27.992;2023-04-25T11:40:28;14.00;;;12.57;;
26478;SDS011;14163;-26.142;27.992;2023-04-25T11:42:59;12.13;;;11.00;;
26478;SDS011;14163;-26.142;27.992;2023-04-25T11:45:31;12.67;;;11.37;;
26478;SDS011;14163;-26.142;27.992;2023-04-25T11:48:01;12.87;;;11.67;;
26478;SDS011;14163;-26.142;27.992;2023-04-25T11:50:31;12.37;;;11.37;;
26478;SDS011;14163;-26.142;27.992;2023-04-25T11:53:00;13.50;;;12.30;;
26478;SDS011;14163;-26.142;27.992;2023-04-25T11:55:30;13.73;;;12.33;;
26478;SDS011;14163;-26.142;27.992;2023-04-25T11:57:59;13.30;;;12.10;;
26478;SDS011;14163;-26.142;27.992;2023-04-25T12:00:31;13.77;;;12.67;;
26478;SDS011;14163;-26.142;27.992;2023-04-25T14:08:11;12.90;;;11.80;;
26478;SDS011;14163;-26.142;27.992;2023-04-25T14:10:41;12.93;;;11.77;;
26478;SDS011;14163;-26.142;27.992;2023-04-25T14:13:10;13.57;;;12.27;;
26478;SDS011;14163;-26.142;27.992;2023-04-25T14:15:40;13.87;;;12.57;;
26478;SDS011;14163;-26.142;27.992;2023-04-25T14:18:09;12.63;;;11.37;;
26478;SDS011;14163;-26.142;27.992;2023-04-25T14:20:38;12.43;;;11.23;;
26478;SDS011;14163;-26.142;27.992;2023-04-25T14:23:07;12.50;;;11.40;;
26478;SDS011;14163;-26.142;27.992;2023-04-25T14:25:38;15.17;;;12.63;;
26478;SDS011;14163;-26.142;27.992;2023-04-25T14:28:07;15.63;;;12.80;;
26478;SDS011;14163;-26.142;27.992;2023-04-25T14:30:37;15.23;;;12.87;;
26478;SDS011;14163;-26.142;27.992;2023-04-25T14:33:06;13.50;;;12.30;;
26478;SDS011;14163;-26.142;27.992;2023-04-25T14:35:35;12.20;;;11.00;;
26478;SDS011;14163;-26.142;27.992;2023-04-25T14:38:05;13.20;;;12.00;;
26478;SDS011;14163;-26.142;27.992;2023-04-25T14:40:34;14.03;;;12.60;;
26478;SDS011;14163;-26.142;27.992;2023-04-25T14:43:05;13.00;;;11.87;;
26478;SDS011;14163;-26.142;27.992;2023-04-25T14:45:34;13.20;;;11.90;;
26478;SDS011;14163;-26.142;27.992;2023-04-25T14:48:03;13.00;;;11.83;;
26478;SDS011;14163;-26.142;27.992;2023-04-25T14:50:33;12.80;;;11.80;;
26478;SDS011;14163;-26.142;27.992;2023-04-25T14:53:02;14.93;;;12.30;;
26478;SDS011;14163;-26.142;27.992;2023-04-25T14:55:31;13.60;;;12.23;;
26478;SDS011;14163;-26.142;27.992;2023-04-25T14:58:01;14.17;;;12.87;;
26478;SDS011;14163;-26.142;27.992;2023-04-25T15:00:32;13.70;;;12.30;;
26478;SDS011;14163;-26.142;27.992;2023-04-25T15:03:01;14.50;;;13.00;;
26478;SDS011;14163;-26.142;27.992;2023-04-25T15:05:31;14.23;;;12.93;;
26478;SDS011;14163;-26.142;27.992;2023-04-25T15:08:00;15.80;;;13.60;;
26478;SDS011;14163;-26.142;27.992;2023-04-25T15:10:30;15.77;;;14.17;;
26478;SDS011;14163;-26.142;27.992;2023-04-25T15:12:59;15.13;;;13.77;;
26478;SDS011;14163;-26.142;27.992;2023-04-25T15:15:28;16.10;;;14.43;;
26478;SDS011;14163;-26.142;27.992;2023-04-25T15:17:59;17.47;;;13.93;;
26478;SDS011;14163;-26.142;27.992;2023-04-25T15:20:28;16.80;;;15.20;;
26478;SDS011;14163;-26.142;27.992;2023-04-25T15:22:57;18.70;;;16.67;;
26478;SDS011;14163;-26.142;27.992;2023-04-25T15:25:29;18.53;;;16.60;;
26478;SDS011;14163;-26.142;27.992;2023-04-25T15:27:58;23.97;;;18.63;;
26478;SDS011;14163;-26.142;27.992;2023-04-25T15:30:27;20.93;;;17.43;;
26478;SDS011;14163;-26.142;27.992;2023-04-25T15:32:56;19.03;;;17.10;;
26478;SDS011;14163;-26.142;27.992;2023-04-25T15:35:27;19.97;;;17.63;;
26478;SDS011;14163;-26.142;27.992;2023-04-25T15:37:56;19.80;;;17.70;;
26478;SDS011;14163;-26.142;27.992;2023-04-25T15:40:25;19.30;;;16.80;;
26478;SDS011;14163;-26.142;27.992;2023-04-25T15:42:55;20.43;;;17.13;;
26478;SDS011;14163;-26.142;27.992;2023-04-25T15:45:24;22.80;;;17.97;;
26478;SDS011;14163;-26.142;27.992;2023-04-25T15:47:55;19.43;;;17.50;;
26478;SDS011;14163;-26.142;27.992;2023-04-25T15:50:25;19.67;;;17.43;;
26478;SDS011;14163;-26.142;27.992;2023-04-25T15:52:55;19.43;;;17.00;;
26478;SDS011;14163;-26.142;27.992;2023-04-25T15:55:24;20.50;;;18.37;;
26478;SDS011;14163;-26.142;27.992;2023-04-25T15:57:53;23.17;;;18.27;;
26478;SDS011;14163;-26.142;27.992;2023-04-25T16:00:23;18.37;;;16.50;;
26478;SDS011;14163;-26.142;27.992;2023-04-25T16:02:52;19.33;;;17.47;;
26478;SDS011;14163;-26.142;27.992;2023-04-25T16:05:21;19.67;;;17.57;;
26478;SDS011;14163;-26.142;27.992;2023-04-25T16:07:52;21.27;;;19.03;;
26478;SDS011;14163;-26.142;27.992;2023-04-25T16:10:21;22.57;;;18.17;;
26478;SDS011;14163;-26.142;27.992;2023-04-25T16:12:51;21.83;;;18.53;;
26478;SDS011;14163;-26.142;27.992;2023-04-25T16:15:20;19.40;;;17.20;;
26478;SDS011;14163;-26.142;27.992;2023-04-25T16:17:49;20.23;;;18.23;;
26478;SDS011;14163;-26.142;27.992;2023-04-25T16:20:18;21.20;;;18.93;;
26478;SDS011;14163;-26.142;27.992;2023-04-25T16:22:47;20.70;;;18.40;;
26478;SDS011;14163;-26.142;27.992;2023-04-25T16:26:29;23.10;;;19.03;;
26478;SDS011;14163;-26.142;27.992;2023-04-25T16:29:02;20.70;;;18.50;;
26478;SDS011;14163;-26.142;27.992;2023-04-25T16:31:32;21.17;;;18.67;;
26478;SDS011;14163;-26.142;27.992;2023-04-25T16:34:03;25.40;;;21.37;;
26478;SDS011;14163;-26.142;27.992;2023-04-25T16:36:32;21.30;;;19.03;;
26478;SDS011;14163;-26.142;27.992;2023-04-25T16:39:02;22.73;;;19.10;;
26478;SDS011;14163;-26.142;27.992;2023-04-25T16:41:34;21.73;;;19.60;;
26478;SDS011;14163;-26.142;27.992;2023-04-25T16:44:04;20.90;;;18.77;;
26478;SDS011;14163;-26.142;27.992;2023-04-25T16:46:33;23.00;;;20.50;;
26478;SDS011;14163;-26.142;27.992;2023-04-25T16:49:03;25.20;;;19.30;;
26478;SDS011;14163;-26.142;27.992;2023-04-25T16:51:32;21.37;;;19.10;;
26478;SDS011;14163;-26.142;27.992;2023-04-25T16:54:02;22.90;;;19.87;;
26478;SDS011;14163;-26.142;27.992;2023-04-25T16:56:31;25.73;;;21.63;;
26478;SDS011;14163;-26.142;27.992;2023-04-25T16:59:02;23.40;;;20.67;;
26478;SDS011;14163;-26.142;27.992;2023-04-25T17:01:33;23.50;;;20.97;;
26478;SDS011;14163;-26.142;27.992;2023-04-25T17:04:02;24.47;;;21.83;;
26478;SDS011;14163;-26.142;27.992;2023-04-25T17:06:32;22.47;;;19.40;;
26478;SDS011;14163;-26.142;27.992;2023-04-25T17:09:02;21.80;;;19.60;;
26478;SDS011;14163;-26.142;27.992;2023-04-25T17:11:34;26.53;;;19.20;;
26478;SDS011;14163;-26.142;27.992;2023-04-25T17:14:03;22.43;;;20.03;;
26478;SDS011;14163;-26.142;27.992;2023-04-25T17:16:35;24.20;;;20.63;;
26478;SDS011;14163;-26.142;27.992;2023-04-25T17:19:05;24.50;;;21.60;;
26478;SDS011;14163;-26.142;27.992;2023-04-25T17:21:34;31.63;;;25.27;;
26478;SDS011;14163;-26.142;27.992;2023-04-25T17:24:04;27.77;;;24.77;;
26478;SDS011;14163;-26.142;27.992;2023-04-25T17:26:36;28.90;;;25.80;;
26478;SDS011;14163;-26.142;27.992;2023-04-25T17:29:05;40.83;;;27.60;;
26478;SDS011;14163;-26.142;27.992;2023-04-25T17:31:35;34.07;;;27.93;;
26478;SDS011;14163;-26.142;27.992;2023-04-25T17:34:04;28.83;;;24.90;;
26478;SDS011;14163;-26.142;27.992;2023-04-25T17:36:34;33.70;;;26.77;;
26478;SDS011;14163;-26.142;27.992;2023-04-25T17:39:03;27.53;;;24.53;;
26478;SDS011;14163;-26.142;27.992;2023-04-25T17:41:38;32.63;;;29.50;;
26478;SDS011;14163;-26.142;27.992;2023-04-25T17:44:08;30.73;;;24.67;;
26478;SDS011;14163;-26.142;27.992;2023-04-25T17:46:37;27.60;;;24.80;;
26478;SDS011;14163;-26.142;27.992;2023-04-25T17:49:06;24.10;;;21.50;;
26478;SDS011;14163;-26.142;27.992;2023-04-25T17:51:36;23.37;;;20.87;;
26478;SDS011;14163;-26.142;27.992;2023-04-25T17:54:05;23.27;;;20.87;;
26478;SDS011;14163;-26.142;27.992;2023-04-25T17:56:37;22.80;;;20.40;;
26478;SDS011;14163;-26.142;27.992;2023-04-25T17:59:06;28.37;;;23.40;;
26478;SDS011;14163;-26.142;27.992;2023-04-25T18:01:36;23.23;;;20.93;;
26478;SDS011;14163;-26.142;27.992;2023-04-25T18:04:05;26.17;;;21.80;;
26478;SDS011;14163;-26.142;27.992;2023-04-25T18:06:35;23.93;;;21.37;;
26478;SDS011;14163;-26.142;27.992;2023-04-25T18:09:04;25.80;;;23.27;;
26478;SDS011;14163;-26.142;27.992;2023-04-25T18:11:42;30.13;;;22.60;;
26478;SDS011;14163;-26.142;27.992;2023-04-25T18:14:12;28.90;;;23.50;;
26478;SDS011;14163;-26.142;27.992;2023-04-25T18:16:42;28.17;;;24.80;;
26478;SDS011;14163;-26.142;27.992;2023-04-25T18:19:12;27.90;;;23.27;;
26478;SDS011;14163;-26.142;27.992;2023-04-25T18:21:46;25.63;;;22.67;;
26478;SDS011;14163;-26.142;27.992;2023-04-25T18:24:15;28.73;;;25.57;;
26478;SDS011;14163;-26.142;27.992;2023-04-25T18:26:47;32.30;;;28.90;;
26478;SDS011;14163;-26.142;27.992;2023-04-25T18:29:18;34.13;;;28.90;;
26478;SDS011;14163;-26.142;27.992;2023-04-25T18:31:47;35.90;;;29.00;;
26478;SDS011;14163;-26.142;27.992;2023-04-25T18:34:16;32.37;;;28.93;;
26478;SDS011;14163;-26.142;27.992;2023-04-25T18:36:49;30.40;;;27.10;;
26478;SDS011;14163;-26.142;27.992;2023-04-25T18:39:20;33.63;;;29.17;;
26478;SDS011;14163;-26.142;27.992;2023-04-25T18:41:51;35.00;;;29.43;;